TX86 weather

Methodist Hospital Alkek Heliport
Houston, Texas, United States

Public forecast

Using degrees Fahrenheit for public forecast. Weather courtesy of forecast.io.

METAR (pilot weather report)

Closest report is William P Hobby Airport, 7.4 nm (13.7 km) ESE. Retrieved 2019/07/17 20:53 UTC (46 minutes ago):

KHOU 172053Z 15014G22KT 10SM FEW035 SCT055 SCT250 34/24 A3002 RMK AO2 LTG DSNT NW SLP170 T03390239 58009

TAF (pilot weather forecast)

Closest forecast is William P Hobby Airport, 7.4 nm (13.7 km) ESE. Retrieved 2019/07/17 18:24 UTC (3 hours ago):

TAF KHOU 171720Z 1718/1818 16009KT P6SM SCT030 SCT040 FM180100 16005KT P6SM FEW015 FEW020 SCT250 FM180900 17003KT P6SM SCT020 SCT250 FM181600 17008KT P6SM SCT030 SCT250